Kezdőlap
METAR-TAF:

METAR-TAF

Repülőterek :

Harbin, Kína

földrajzi szélesség: 45-45N, földrajzi hosszúság: 126-46E, magasság: 143 m

Jelenlegi meteorológiai megfigyelések

A jelentés 25 perccel ezelõtt készült, 03:00 UTC
Dél-délnyugati szél 6 kt
Hőmérséklet -11°C
Páratartalom 51%
Légköri nyomás 1027 hPa
Látótávolság: 7000 m

METAR: ZYHB 120300Z 21003MPS 7000 NSC M11/M19 Q1027 NOSIG

Idő: 11:25 (03:25 UTC)

Előrejelzés

A jelentés 8 órával és 19 perccel ezelõtt készült, 19:06 UTC
Az előrejelzés 12-én 00 óra UTC és 12-én 24 óra UTC között érvényes
Dél-délnyugati szél 6 kt
Látótávolság: 4000 m
füst
12-én 00 óra UTC és 12-én 02 óra UTC között ideiglenes
Látótávolság: 2000 m

TAF: ZYHB 111906Z 1200/1224 20003MPS 4000 FU NSC TXM09/06Z TNM23/22Z TEMPO 1200/1202 2000

Meteorológiai megfigyelések és előrejelzések több, mint 4000 repülőtéren (METAR és TAF jelentéseket).

A térképen piros és sárga pontok jelzik az elérhető meteorológiai állomásokat.

Mozgassa az egeret a pont fölött, hogy megjelenjen az állomás neve.

Azután kattintson az időjárási megfigyelések és előrejelzések megtekintéséhez.

A térkép megváltoztatása: kattintson a fekete keresztel jelölt zöld gombra ráközelítéshez, a vonallal jelölt zöld gombra távolításhoz, vagy a zöld nyilakra a szomszédos térképek eléréséhez.


METAR-TAF: